Time;durP1;ratioP1;P1;durP2;ratioP2;P2;SDS_P1;SDS_P2;PMS_P1;PMS_P2;Temp;Humidity;BMP_temperature;BMP_pressure;BME280_temperature;BME280_humidity;BME280_pressure;Samples;Min_cycle;Max_cycle;Signal;HPM_P1;HPM_P2
2021/07/28 00:00:04;;;;;;;10.15;8.10;;;21.20;99.40;;;;;;2048579;28;20439;-71
2021/07/28 00:01:20;;;;;;;8.70;7.90;;;21.30;99.30;;;;;;2048448;28;20036;-70
2021/07/28 00:02:20;;;;;;;9.20;8.20;;;21.30;99.40;;;;;;2047108;29;20591;-70
2021/07/28 00:03:21;;;;;;;8.95;8.05;;;21.30;99.20;;;;;;2047912;29;20035;-70
2021/07/28 00:04:21;;;;;;;11.85;8.50;;;21.30;99.10;;;;;;2047493;28;20054;-70
2021/07/28 00:05:22;;;;;;;9.98;7.72;;;21.30;99.10;;;;;;2039766;29;20055;-69
2021/07/28 00:06:23;;;;;;;11.85;7.90;;;21.30;98.90;;;;;;2047257;29;20039;-70
2021/07/28 00:07:24;;;;;;;8.77;7.50;;;21.30;98.80;;;;;;2048021;29;20024;-70
2021/07/28 00:08:24;;;;;;;8.93;8.07;;;21.30;98.60;;;;;;2047747;29;20032;-70
2021/07/28 00:09:25;;;;;;;8.65;7.65;;;21.30;98.20;;;;;;2047786;29;20031;-69
2021/07/28 00:10:26;;;;;;;9.23;7.80;;;21.30;98.20;;;;;;2048207;29;20027;-69
2021/07/28 00:11:26;;;;;;;9.38;7.72;;;21.30;98.20;;;;;;2047936;29;20380;-70
2021/07/28 00:12:27;;;;;;;9.27;7.57;;;21.30;98.20;;;;;;2048073;28;20487;-70
2021/07/28 00:13:27;;;;;;;9.18;8.07;;;21.40;98.00;;;;;;2048317;29;20054;-71
2021/07/28 00:14:28;;;;;;;9.13;7.88;;;21.40;97.90;;;;;;2048481;29;20550;-70
2021/07/28 00:15:29;;;;;;;9.07;8.07;;;21.40;97.80;;;;;;2048423;29;20023;-69
2021/07/28 00:16:29;;;;;;;8.70;7.80;;;21.40;97.70;;;;;;2048487;29;20039;-69
2021/07/28 00:17:31;;;;;;;10.13;7.78;;;21.40;97.70;;;;;;2048342;29;20035;-70
2021/07/28 00:23:42;;;;;;;9.43;7.70;;;21.40;97.60;;;;;;2048536;28;20186;-71
2021/07/28 00:24:42;;;;;;;12.25;7.70;;;21.30;97.80;;;;;;2048357;28;20538;-71
2021/07/28 00:25:45;;;;;;;9.65;8.07;;;21.30;97.90;;;;;;2048523;28;20023;-70
2021/07/28 00:26:46;;;;;;;8.60;7.68;;;21.30;98.00;;;;;;2039668;29;20036;-71
2021/07/28 00:27:46;;;;;;;8.77;7.32;;;21.30;98.10;;;;;;2039782;29;20055;-70
2021/07/28 00:28:47;;;;;;;9.40;7.57;;;21.40;98.20;;;;;;2047734;29;20403;-70
2021/07/28 00:29:47;;;;;;;9.93;7.50;;;21.30;98.20;;;;;;2047754;29;20031;-70
2021/07/28 00:30:48;;;;;;;8.55;7.60;;;21.30;98.40;;;;;;2047764;29;20034;-70
2021/07/28 00:31:49;;;;;;;8.75;7.40;;;21.30;98.50;;;;;;2047701;29;20031;-71
2021/07/28 00:32:49;;;;;;;8.82;7.32;;;21.30;98.60;;;;;;2047975;29;20054;-70
2021/07/28 00:33:50;;;;;;;8.73;7.60;;;21.30;98.80;;;;;;2047755;29;20027;-70
2021/07/28 00:34:50;;;;;;;9.88;7.72;;;21.20;98.90;;;;;;2047551;29;20059;-70
2021/07/28 00:35:54;;;;;;;10.10;7.40;;;21.30;98.90;;;;;;2048271;29;20125;-70
2021/07/28 00:36:55;;;;;;;8.68;7.65;;;21.30;98.90;;;;;;2048559;28;20037;-70
2021/07/28 00:38:00;;;;;;;10.48;8.25;;;21.20;98.70;;;;;;2048458;29;20042;-70
2021/07/28 00:39:01;;;;;;;9.13;8.10;;;21.20;98.60;;;;;;2047804;29;20039;-70
2021/07/28 00:40:03;;;;;;;9.07;7.85;;;21.20;98.70;;;;;;2047696;29;20070;-70
2021/07/28 00:41:04;;;;;;;9.85;7.90;;;21.20;98.80;;;;;;2048481;28;20089;-70
2021/07/28 00:42:05;;;;;;;8.68;7.78;;;21.20;98.70;;;;;;2048413;28;20063;-71
2021/07/28 00:43:10;;;;;;;8.70;7.30;;;21.20;98.60;;;;;;2048193;29;20055;-70
2021/07/28 00:44:11;;;;;;;8.93;7.70;;;21.20;98.70;;;;;;2047689;28;20082;-69
2021/07/28 00:45:12;;;;;;;8.40;7.50;;;21.20;98.70;;;;;;2039976;29;20036;-69
2021/07/28 00:46:13;;;;;;;8.40;7.53;;;21.20;98.70;;;;;;2047769;29;20063;-70
2021/07/28 00:47:14;;;;;;;10.43;7.72;;;21.20;98.80;;;;;;2048497;29;20051;-70
2021/07/28 00:48:15;;;;;;;10.30;7.57;;;21.20;98.90;;;;;;2047595;29;20035;-70
2021/07/28 00:49:18;;;;;;;10.75;8.07;;;21.20;98.90;;;;;;2047605;29;20090;-70
2021/07/28 00:50:19;;;;;;;10.30;8.23;;;21.20;98.80;;;;;;2047848;29;20172;-70
2021/07/28 00:51:19;;;;;;;10.35;8.75;;;21.20;98.90;;;;;;2048354;29;20054;-70
2021/07/28 00:52:20;;;;;;;8.50;7.60;;;21.10;99.00;;;;;;2048293;29;20027;-69
2021/07/28 00:53:21;;;;;;;11.82;8.50;;;21.10;99.10;;;;;;2048677;29;20050;-70
2021/07/28 00:54:23;;;;;;;9.50;8.35;;;21.10;99.10;;;;;;2048360;28;20082;-70
2021/07/28 00:55:24;;;;;;;10.07;8.30;;;21.10;99.40;;;;;;2048446;28;20027;-70
2021/07/28 00:56:25;;;;;;;10.05;8.07;;;21.10;99.50;;;;;;2047771;29;20055;-70
2021/07/28 00:57:26;;;;;;;9.70;7.72;;;21.10;99.40;;;;;;2047491;29;20459;-69
2021/07/28 00:58:29;;;;;;;10.10;8.38;;;21.10;99.30;;;;;;2048224;29;20028;-72
2021/07/28 00:59:30;;;;;;;9.48;8.07;;;21.10;99.40;;;;;;2048252;28;20057;-69
2021/07/28 01:00:31;;;;;;;8.95;8.02;;;21.10;99.50;;;;;;2048142;29;20686;-69
2021/07/28 01:01:31;;;;;;;8.50;7.60;;;21.10;99.90;;;;;;2048268;29;20028;-69
2021/07/28 01:02:32;;;;;;;9.82;7.78;;;21.10;99.90;;;;;;2047245;29;20031;-69
2021/07/28 01:03:33;;;;;;;10.38;8.07;;;21.00;99.90;;;;;;2047624;29;20027;-69
2021/07/28 01:04:33;;;;;;;9.38;7.97;;;21.00;99.90;;;;;;2048513;28;20031;-69
2021/07/28 01:05:34;;;;;;;10.07;8.27;;;21.00;99.90;;;;;;2047994;29;20086;-68
2021/07/28 01:06:36;;;;;;;9.20;8.30;;;21.00;99.90;;;;;;2047905;29;20427;-68
2021/07/28 01:07:36;;;;;;;8.70;7.80;;;21.00;99.90;;;;;;2048170;29;20039;-68
2021/07/28 01:08:37;;;;;;;9.35;7.90;;;21.00;99.90;;;;;;2048192;28;20041;-69
2021/07/28 01:09:37;;;;;;;9.98;7.53;;;21.00;99.90;;;;;;2048264;28;20390;-69
2021/07/28 01:10:38;;;;;;;8.63;7.72;;;21.00;99.90;;;;;;2048060;29;20054;-69
2021/07/28 01:11:39;;;;;;;8.60;7.70;;;21.00;99.90;;;;;;2047784;28;20042;-69
2021/07/28 01:12:44;;;;;;;9.45;8.45;;;20.90;99.90;;;;;;2047329;29;20108;-68
2021/07/28 01:13:45;;;;;;;12.25;8.70;;;20.90;99.90;;;;;;2048289;28;20148;-71
2021/07/28 01:14:45;;;;;;;9.65;8.30;;;20.90;99.90;;;;;;2048288;29;20134;-71
2021/07/28 01:15:49;;;;;;;9.43;8.05;;;20.90;99.90;;;;;;2047589;28;20031;-69
2021/07/28 01:16:52;;;;;;;8.85;7.85;;;20.90;99.90;;;;;;2049219;29;20490;-72
2021/07/28 01:17:52;;;;;;;9.25;7.90;;;20.90;99.90;;;;;;2041173;29;20410;-71
2021/07/28 01:18:53;;;;;;;8.98;8.05;;;20.90;99.90;;;;;;2041272;29;20032;-71
2021/07/28 01:20:03;;;;;;;8.98;7.85;;;20.80;99.90;;;;;;2050496;28;20046;-72
2021/07/28 01:21:11;;;;;;;8.70;7.72;;;20.90;99.90;;;;;;2049249;29;20483;-71
2021/07/28 01:22:11;;;;;;;9.00;7.88;;;20.80;99.90;;;;;;2049416;29;20515;-72
2021/07/28 01:23:30;;;;;;;8.52;7.72;;;20.80;99.90;;;;;;2049447;29;20035;-71
2021/07/28 01:24:33;;;;;;;10.25;8.60;;;20.80;99.90;;;;;;2049843;29;20090;-71
2021/07/28 01:25:35;;;;;;;11.32;8.13;;;20.80;99.90;;;;;;2050033;28;20070;-71
2021/07/28 01:26:37;;;;;;;8.98;7.82;;;20.80;99.90;;;;;;2048948;29;20035;-71
2021/07/28 01:27:38;;;;;;;9.55;8.05;;;20.80;99.90;;;;;;2049197;29;20067;-70
2021/07/28 01:28:39;;;;;;;8.88;7.80;;;20.80;99.90;;;;;;2049735;28;20775;-71
2021/07/28 01:29:40;;;;;;;9.05;7.55;;;20.80;99.90;;;;;;2049724;28;20062;-71
2021/07/28 01:30:42;;;;;;;8.57;7.68;;;20.80;99.90;;;;;;2049642;29;20390;-71
2021/07/28 01:31:43;;;;;;;8.88;7.50;;;20.70;99.90;;;;;;2048758;29;20039;-70
2021/07/28 01:32:47;;;;;;;10.07;7.88;;;20.70;99.90;;;;;;2048814;29;20039;-71
2021/07/28 01:33:48;;;;;;;8.32;7.53;;;20.80;99.90;;;;;;2049747;29;20181;-71
2021/07/28 01:34:49;;;;;;;10.10;7.68;;;20.70;99.90;;;;;;2049648;28;20475;-71
2021/07/28 01:35:51;;;;;;;8.55;7.53;;;20.80;99.90;;;;;;2049657;29;20039;-71
2021/07/28 01:36:55;;;;;;;9.35;8.10;;;20.80;99.90;;;;;;2041089;29;20492;-71
2021/07/28 01:37:56;;;;;;;9.55;8.25;;;20.80;99.90;;;;;;2041730;29;20115;-71
2021/07/28 01:38:56;;;;;;;9.77;8.13;;;20.80;99.90;;;;;;2049688;29;20039;-71
2021/07/28 01:39:57;;;;;;;10.93;8.20;;;20.70;99.90;;;;;;2049776;28;20117;-71
2021/07/28 01:40:59;;;;;;;9.13;8.15;;;20.70;99.90;;;;;;2049605;28;20027;-71
2021/07/28 01:42:00;;;;;;;9.73;8.20;;;20.70;99.90;;;;;;2049018;29;20019;-71
2021/07/28 01:43:11;;;;;;;8.70;7.80;;;20.70;99.90;;;;;;2048742;29;20049;-71
2021/07/28 01:44:11;;;;;;;10.32;8.35;;;20.70;99.90;;;;;;2049533;29;20041;-70
2021/07/28 01:45:13;;;;;;;8.90;7.57;;;20.70;99.90;;;;;;2049570;29;20375;-70
2021/07/28 01:46:14;;;;;;;8.90;8.00;;;20.70;99.90;;;;;;2049663;28;20078;-71
2021/07/28 01:47:15;;;;;;;9.93;8.05;;;20.70;99.90;;;;;;2049675;28;20039;-70
2021/07/28 01:48:16;;;;;;;8.88;7.97;;;20.70;99.90;;;;;;2049630;28;20106;-71
2021/07/28 01:49:16;;;;;;;9.65;7.70;;;20.70;99.90;;;;;;2049497;28;20036;-70
2021/07/28 01:50:17;;;;;;;10.65;8.00;;;20.60;99.90;;;;;;2048975;29;20034;-70
2021/07/28 01:51:17;;;;;;;10.07;8.88;;;20.60;99.90;;;;;;2048864;29;20110;-71
2021/07/28 01:52:18;;;;;;;9.07;8.13;;;20.60;99.90;;;;;;2048993;29;20027;-71
2021/07/28 01:53:18;;;;;;;9.13;7.82;;;20.60;99.90;;;;;;2049176;29;20026;-71
2021/07/28 01:54:19;;;;;;;8.93;7.95;;;20.60;99.90;;;;;;2049434;28;20518;-70
2021/07/28 01:55:20;;;;;;;9.75;7.97;;;20.50;99.90;;;;;;2049455;28;20407;-71
2021/07/28 01:56:20;;;;;;;9.38;7.97;;;20.50;99.90;;;;;;2049238;29;20038;-71
2021/07/28 01:57:21;;;;;;;11.80;8.50;;;20.50;99.90;;;;;;2049502;29;20475;-71
2021/07/28 01:58:22;;;;;;;9.77;8.48;;;20.50;99.90;;;;;;2049392;29;20035;-70
2021/07/28 01:59:23;;;;;;;10.90;8.80;;;20.40;99.90;;;;;;2049687;28;20039;-71
2021/07/28 02:00:24;;;;;;;9.48;8.52;;;20.40;99.90;;;;;;2049622;28;20063;-71
2021/07/28 02:01:24;;;;;;;9.85;8.35;;;20.40;99.90;;;;;;2049557;28;20027;-72
2021/07/28 02:02:28;;;;;;;9.45;8.05;;;20.40;99.90;;;;;;2049423;28;20058;-72
2021/07/28 02:03:28;;;;;;;9.80;7.93;;;20.40;99.90;;;;;;2048883;29;20028;-72
2021/07/28 02:04:29;;;;;;;10.40;8.23;;;20.40;99.90;;;;;;2048812;29;20035;-72
2021/07/28 02:05:37;;;;;;;9.00;8.10;;;20.30;99.90;;;;;;2049492;29;20540;-73
2021/07/28 02:06:37;;;;;;;11.77;8.25;;;20.30;99.90;;;;;;2048916;29;20066;-72
2021/07/28 02:07:38;;;;;;;11.68;8.95;;;20.30;99.90;;;;;;2041121;29;20036;-72
2021/07/28 02:08:38;;;;;;;10.02;8.52;;;20.30;99.90;;;;;;2049009;29;20210;-72
2021/07/28 02:09:39;;;;;;;10.95;8.60;;;20.30;99.90;;;;;;2049590;28;20123;-72
2021/07/28 02:10:46;;;;;;;10.63;8.95;;;20.30;99.90;;;;;;2049539;28;20114;-72
2021/07/28 02:11:47;;;;;;;9.27;8.27;;;20.30;99.90;;;;;;2049450;29;20019;-72
2021/07/28 02:12:47;;;;;;;10.23;8.48;;;20.30;99.90;;;;;;2049024;29;20027;-72
2021/07/28 02:13:48;;;;;;;11.23;8.70;;;20.30;99.90;;;;;;2049316;28;20031;-72
2021/07/28 02:14:48;;;;;;;9.20;8.23;;;20.30;99.90;;;;;;2049311;29;20042;-72
2021/07/28 02:15:50;;;;;;;10.07;8.43;;;20.30;99.90;;;;;;2048857;29;20031;-72
2021/07/28 02:16:50;;;;;;;11.32;8.68;;;20.30;99.90;;;;;;2048791;29;20027;-72
2021/07/28 02:17:53;;;;;;;8.82;7.93;;;20.30;99.90;;;;;;2049393;29;20035;-72
2021/07/28 02:18:53;;;;;;;9.55;8.45;;;20.30;99.90;;;;;;2049262;28;20431;-72
2021/07/28 02:19:54;;;;;;;9.82;8.35;;;20.30;99.90;;;;;;2049294;28;20114;-72
2021/07/28 02:20:58;;;;;;;9.02;8.13;;;20.30;99.90;;;;;;2049217;28;20059;-72
2021/07/28 02:21:58;;;;;;;11.77;8.38;;;20.30;99.90;;;;;;2049085;29;20023;-72
2021/07/28 02:23:00;;;;;;;9.38;8.35;;;20.20;99.90;;;;;;2048457;29;20103;-73
2021/07/28 02:24:00;;;;;;;11.13;8.32;;;20.30;99.90;;;;;;2048611;29;20019;-72
2021/07/28 02:25:01;;;;;;;11.00;9.00;;;20.20;99.90;;;;;;2049231;28;20039;-72
2021/07/28 02:26:02;;;;;;;9.40;8.50;;;20.20;99.90;;;;;;2049414;28;20041;-72
2021/07/28 02:27:02;;;;;;;10.45;9.02;;;20.20;99.90;;;;;;2049463;28;20104;-72
2021/07/28 02:28:03;;;;;;;10.57;8.75;;;20.20;99.90;;;;;;2049339;29;20043;-72
2021/07/28 02:29:04;;;;;;;11.15;8.65;;;20.20;99.90;;;;;;2049461;28;20547;-72
2021/07/28 02:30:06;;;;;;;9.80;8.70;;;20.20;99.90;;;;;;2048673;29;20024;-72
2021/07/28 02:31:06;;;;;;;13.63;8.82;;;20.10;99.90;;;;;;2048819;29;20030;-72
2021/07/28 02:32:07;;;;;;;10.55;8.80;;;20.10;99.90;;;;;;2049112;29;20047;-72
2021/07/28 02:33:08;;;;;;;10.00;8.50;;;20.10;99.90;;;;;;2049152;28;20031;-70
2021/07/28 02:34:09;;;;;;;10.15;8.93;;;20.10;99.90;;;;;;2049263;28;20118;-73
2021/07/28 02:35:12;;;;;;;10.77;9.25;;;20.00;99.90;;;;;;2048589;29;20791;-72
2021/07/28 02:36:13;;;;;;;13.25;8.88;;;20.00;99.90;;;;;;2048766;29;20046;-72
2021/07/28 02:37:13;;;;;;;12.95;8.88;;;20.00;99.90;;;;;;2049242;29;20035;-72
2021/07/28 02:38:14;;;;;;;10.10;8.75;;;20.00;99.90;;;;;;2049203;29;20031;-72
2021/07/28 02:39:14;;;;;;;10.77;8.77;;;19.90;99.90;;;;;;2049091;28;20039;-72
2021/07/28 02:40:18;;;;;;;10.57;8.32;;;19.90;99.90;;;;;;2048242;29;20125;-72
2021/07/28 02:41:19;;;;;;;11.88;8.90;;;19.90;99.90;;;;;;2048682;29;20038;-72
2021/07/28 02:42:19;;;;;;;10.35;8.73;;;19.90;99.90;;;;;;2049093;29;20049;-71
2021/07/28 02:43:20;;;;;;;13.05;8.57;;;19.90;99.90;;;;;;2048810;28;20499;-72
2021/07/28 02:44:21;;;;;;;10.48;8.75;;;19.90;99.90;;;;;;2048381;29;20110;-72
2021/07/28 02:45:21;;;;;;;11.02;8.77;;;19.90;99.90;;;;;;2048488;29;20090;-72
2021/07/28 02:46:22;;;;;;;9.55;8.60;;;19.90;99.90;;;;;;2048476;29;20121;-72
2021/07/28 02:47:22;;;;;;;10.02;8.40;;;19.90;99.90;;;;;;2040378;29;20134;-72
2021/07/28 02:48:23;;;;;;;9.50;8.50;;;19.90;99.90;;;;;;2048539;29;20031;-72
2021/07/28 02:49:23;;;;;;;9.60;8.52;;;19.90;99.90;;;;;;2049132;28;20505;-72
2021/07/28 02:50:24;;;;;;;12.50;9.20;;;20.00;99.90;;;;;;2049160;28;20174;-72
2021/07/28 02:51:24;;;;;;;11.45;9.10;;;20.00;99.90;;;;;;2048550;29;20063;-72
2021/07/28 02:52:25;;;;;;;11.63;9.43;;;20.00;99.90;;;;;;2048495;29;20058;-72
2021/07/28 02:53:26;;;;;;;10.93;8.80;;;20.00;99.90;;;;;;2048751;28;20463;-72
2021/07/28 02:54:27;;;;;;;10.70;8.38;;;20.00;99.90;;;;;;2048321;29;20027;-72
2021/07/28 02:55:27;;;;;;;10.38;9.10;;;20.10;99.90;;;;;;2048474;29;20103;-72
2021/07/28 02:56:28;;;;;;;11.13;8.55;;;20.10;99.90;;;;;;2049023;29;20480;-72
2021/07/28 02:57:29;;;;;;;11.95;8.88;;;20.10;99.90;;;;;;2049155;28;20499;-72
2021/07/28 02:58:30;;;;;;;13.18;9.68;;;20.20;99.90;;;;;;2048938;28;20023;-72
2021/07/28 02:59:31;;;;;;;12.43;9.55;;;20.10;99.90;;;;;;2049079;28;20399;-71
2021/07/28 03:00:31;;;;;;;11.00;9.77;;;20.10;99.90;;;;;;2048298;28;20035;-72
2021/07/28 03:01:32;;;;;;;14.30;10.00;;;20.10;99.90;;;;;;2048583;29;20608;-76
2021/07/28 03:02:33;;;;;;;12.43;9.73;;;20.10;99.90;;;;;;2049335;29;20027;-73
2021/07/28 03:03:33;;;;;;;15.52;9.57;;;20.10;99.90;;;;;;2049214;28;20035;-70
2021/07/28 03:04:34;;;;;;;15.02;9.40;;;20.10;99.90;;;;;;2040375;28;20027;-73
2021/07/28 03:05:35;;;;;;;12.93;9.18;;;20.10;99.90;;;;;;2040588;29;20440;-74
2021/07/28 03:06:35;;;;;;;11.48;9.32;;;20.10;99.90;;;;;;2049157;28;20602;-72
2021/07/28 03:07:36;;;;;;;12.00;9.02;;;20.10;99.90;;;;;;2049021;28;20058;-72
2021/07/28 03:08:36;;;;;;;13.23;8.68;;;20.10;99.90;;;;;;2048976;29;20031;-73
2021/07/28 03:09:37;;;;;;;12.82;9.50;;;20.10;99.90;;;;;;2049012;29;20166;-72
2021/07/28 03:10:38;;;;;;;12.05;9.15;;;20.10;99.90;;;;;;2048900;29;20042;-72
2021/07/28 03:11:39;;;;;;;11.48;9.10;;;20.20;99.90;;;;;;2048844;28;20038;-72
2021/07/28 03:12:39;;;;;;;12.13;8.88;;;20.20;99.90;;;;;;2047954;29;20031;-72
2021/07/28 03:13:40;;;;;;;13.18;9.05;;;20.20;99.90;;;;;;2048333;29;20027;-72
2021/07/28 03:14:41;;;;;;;10.48;8.77;;;20.30;99.90;;;;;;2048805;29;20423;-72
2021/07/28 03:15:41;;;;;;;11.95;9.18;;;20.30;99.90;;;;;;2048815;29;20028;-72
2021/07/28 03:16:42;;;;;;;12.32;9.02;;;20.30;99.70;;;;;;2049023;28;20035;-72
2021/07/28 03:17:42;;;;;;;10.45;9.23;;;20.30;99.70;;;;;;2049057;28;20481;-73
2021/07/28 03:18:43;;;;;;;10.98;8.52;;;20.30;99.90;;;;;;2049030;29;20038;-73
2021/07/28 03:19:44;;;;;;;13.70;8.93;;;20.30;99.90;;;;;;2048822;28;20031;-72
2021/07/28 03:20:45;;;;;;;11.40;8.82;;;20.30;99.90;;;;;;2043628;29;20042;-72
2021/07/28 03:21:49;;;;;;;11.52;9.25;;;20.40;99.90;;;;;;2053168;29;20043;-72
2021/07/28 03:22:50;;;;;;;12.15;9.95;;;20.40;99.90;;;;;;2052936;28;20380;-72
2021/07/28 03:23:51;;;;;;;11.05;8.93;;;20.30;99.90;;;;;;2051809;28;20042;-73
2021/07/28 03:24:51;;;;;;;10.23;8.85;;;20.30;99.90;;;;;;2049834;29;20061;-74
2021/07/28 03:25:52;;;;;;;11.13;8.95;;;20.30;99.90;;;;;;2051346;29;20041;-72
2021/07/28 03:26:52;;;;;;;10.73;9.18;;;20.30;99.90;;;;;;2050848;29;20037;-73
2021/07/28 03:27:53;;;;;;;9.93;8.88;;;20.30;99.90;;;;;;2042089;29;20511;-73
2021/07/28 03:28:53;;;;;;;10.45;9.00;;;20.20;99.90;;;;;;2041134;29;20091;-72
2021/07/28 03:29:54;;;;;;;10.38;9.20;;;20.20;99.90;;;;;;2049167;28;20102;-72
2021/07/28 03:30:55;;;;;;;10.02;8.82;;;20.20;99.90;;;;;;2049027;29;20027;-72
2021/07/28 03:31:55;;;;;;;10.25;9.13;;;20.20;99.90;;;;;;2048386;28;20039;-72
2021/07/28 03:32:56;;;;;;;12.05;9.50;;;20.20;99.90;;;;;;2048164;29;20449;-72
2021/07/28 03:33:56;;;;;;;12.18;9.40;;;20.20;99.90;;;;;;2049046;28;20106;-72
2021/07/28 03:34:57;;;;;;;11.20;9.55;;;20.10;99.90;;;;;;2048877;28;20033;-73
2021/07/28 03:35:57;;;;;;;10.23;9.00;;;20.10;99.90;;;;;;2048872;28;20333;-72
2021/07/28 03:36:58;;;;;;;11.90;9.38;;;20.10;99.90;;;;;;2049158;29;20054;-72
2021/07/28 03:37:58;;;;;;;12.85;9.52;;;20.10;99.90;;;;;;2048914;29;20165;-72
2021/07/28 03:38:59;;;;;;;11.43;9.10;;;20.10;99.90;;;;;;2048638;28;20122;-72
2021/07/28 03:40:00;;;;;;;10.20;9.10;;;20.00;99.90;;;;;;2048709;28;20045;-72
2021/07/28 03:41:01;;;;;;;10.40;9.30;;;20.00;99.90;;;;;;2048622;28;20663;-72
2021/07/28 03:42:02;;;;;;;9.73;8.73;;;20.00;99.90;;;;;;2048868;29;20086;-72
2021/07/28 03:43:03;;;;;;;10.45;8.95;;;20.00;99.90;;;;;;2048508;28;20035;-72
2021/07/28 03:44:04;;;;;;;11.95;9.52;;;20.00;99.90;;;;;;2048681;29;20146;-72
2021/07/28 03:45:05;;;;;;;10.98;9.02;;;20.00;99.90;;;;;;2048702;29;20039;-72
2021/07/28 03:46:05;;;;;;;10.88;9.30;;;20.00;99.90;;;;;;2048700;29;20082;-72
2021/07/28 03:47:06;;;;;;;12.60;9.20;;;20.00;99.90;;;;;;2048713;28;20082;-72
2021/07/28 03:48:07;;;;;;;11.20;9.02;;;20.00;99.90;;;;;;2048683;29;20062;-72
2021/07/28 03:49:07;;;;;;;9.82;8.82;;;20.00;99.90;;;;;;2048696;29;20027;-72
2021/07/28 03:50:09;;;;;;;12.98;9.90;;;20.00;99.90;;;;;;2048779;28;20035;-72
2021/07/28 03:51:09;;;;;;;10.85;9.60;;;20.00;99.90;;;;;;2048478;28;20030;-71
2021/07/28 03:52:10;;;;;;;12.65;9.38;;;20.00;99.90;;;;;;2048603;29;20063;-72
2021/07/28 03:53:10;;;;;;;12.88;10.45;;;20.00;99.90;;;;;;2047745;29;20035;-71
2021/07/28 03:54:11;;;;;;;11.65;10.23;;;19.90;99.90;;;;;;2040208;29;20040;-72
2021/07/28 03:55:12;;;;;;;13.43;10.32;;;19.90;99.90;;;;;;2048128;29;20031;-72
2021/07/28 03:56:12;;;;;;;12.90;10.48;;;19.90;99.90;;;;;;2048767;29;20050;-72
2021/07/28 03:57:13;;;;;;;13.10;10.30;;;19.90;99.90;;;;;;2048342;29;20129;-72
2021/07/28 03:58:14;;;;;;;13.68;9.80;;;19.90;99.90;;;;;;2048418;29;20050;-72
2021/07/28 03:59:14;;;;;;;15.75;10.55;;;19.90;99.90;;;;;;2048696;29;20024;-72
2021/07/28 04:00:15;;;;;;;11.50;9.93;;;20.00;99.90;;;;;;2048780;29;20043;-72
2021/07/28 04:01:16;;;;;;;12.85;10.57;;;20.00;99.90;;;;;;2048605;28;20035;-72
2021/07/28 04:02:16;;;;;;;13.57;10.52;;;20.00;99.90;;;;;;2047979;29;20027;-73
2021/07/28 04:03:17;;;;;;;14.27;10.15;;;20.00;99.90;;;;;;2047630;29;20031;-72
2021/07/28 04:04:17;;;;;;;12.43;10.23;;;20.00;99.90;;;;;;2047832;29;20027;-72
2021/07/28 04:05:18;;;;;;;13.75;9.65;;;20.10;99.90;;;;;;2047981;29;20038;-72
2021/07/28 04:06:19;;;;;;;12.68;9.70;;;20.10;99.90;;;;;;2047571;29;20031;-71
2021/07/28 04:07:20;;;;;;;12.05;9.63;;;20.10;99.90;;;;;;2047981;29;20028;-72
2021/07/28 04:08:21;;;;;;;11.75;9.50;;;20.10;99.90;;;;;;2048430;29;20151;-72
2021/07/28 04:09:21;;;;;;;10.95;9.73;;;20.10;99.90;;;;;;2048625;28;20107;-72
2021/07/28 04:10:22;;;;;;;13.77;10.75;;;20.10;99.90;;;;;;2048546;29;20459;-72
2021/07/28 04:11:23;;;;;;;12.43;10.63;;;20.10;99.90;;;;;;2048500;28;20034;-72
2021/07/28 04:12:27;;;;;;;14.85;10.57;;;20.10;99.90;;;;;;2048443;29;20039;-72
2021/07/28 04:13:27;;;;;;;15.35;10.98;;;20.00;99.90;;;;;;2047645;29;20071;-72
2021/07/28 04:14:28;;;;;;;11.90;9.35;;;20.00;99.90;;;;;;2047935;29;20039;-72
2021/07/28 04:15:28;;;;;;;11.77;9.52;;;20.00;99.90;;;;;;2048353;29;20027;-72
2021/07/28 04:16:29;;;;;;;11.50;10.30;;;20.00;99.90;;;;;;2048509;28;20748;-72
2021/07/28 04:17:30;;;;;;;11.05;9.63;;;20.00;99.90;;;;;;2048581;28;20070;-72
2021/07/28 04:18:31;;;;;;;15.52;10.70;;;20.10;99.90;;;;;;2047843;29;20148;-72
2021/07/28 04:19:32;;;;;;;12.27;10.15;;;20.10;99.90;;;;;;2047791;29;20131;-72
2021/07/28 04:20:32;;;;;;;11.60;8.85;;;20.10;99.90;;;;;;2048389;29;20046;-72
2021/07/28 04:21:33;;;;;;;12.23;9.25;;;20.10;99.90;;;;;;2048481;28;20047;-72
2021/07/28 04:22:34;;;;;;;11.68;9.95;;;20.10;99.90;;;;;;2047769;28;20029;-72
2021/07/28 04:23:34;;;;;;;12.20;9.93;;;20.30;99.90;;;;;;2047533;29;20039;-72
2021/07/28 04:24:35;;;;;;;11.75;9.88;;;20.40;99.90;;;;;;2048475;28;20031;-73
2021/07/28 04:25:35;;;;;;;12.20;10.25;;;20.40;99.90;;;;;;2048725;29;20027;-73
2021/07/28 04:26:36;;;;;;;12.98;10.27;;;20.50;99.90;;;;;;2048507;29;20039;-73
2021/07/28 04:27:37;;;;;;;14.70;10.60;;;20.50;99.90;;;;;;2048614;29;20027;-73
2021/07/28 04:28:38;;;;;;;13.80;10.30;;;20.50;99.90;;;;;;2048057;29;20054;-72
2021/07/28 04:29:39;;;;;;;11.50;9.38;;;20.40;99.90;;;;;;2048082;29;20023;-73
2021/07/28 04:30:39;;;;;;;12.18;9.80;;;20.40;99.90;;;;;;2048039;29;20050;-72
2021/07/28 04:31:40;;;;;;;12.30;9.45;;;20.40;99.90;;;;;;2047975;29;20189;-72
2021/07/28 04:32:40;;;;;;;12.68;9.60;;;20.40;99.90;;;;;;2048271;28;20063;-72
2021/07/28 04:33:41;;;;;;;11.60;9.82;;;20.40;99.90;;;;;;2048164;29;20391;-73
2021/07/28 04:34:41;;;;;;;11.35;9.40;;;20.50;99.90;;;;;;2047741;29;20043;-72
2021/07/28 04:35:44;;;;;;;10.10;9.02;;;20.50;99.90;;;;;;2047735;29;20812;-73
2021/07/28 04:36:45;;;;;;;10.07;9.07;;;20.50;99.90;;;;;;2048442;28;20034;-71
2021/07/28 04:37:45;;;;;;;11.23;9.77;;;20.60;99.90;;;;;;2048348;29;20023;-73
2021/07/28 04:38:46;;;;;;;10.32;9.23;;;20.70;99.90;;;;;;2048164;29;20487;-72
2021/07/28 04:39:47;;;;;;;12.25;9.23;;;20.70;99.90;;;;;;2047716;28;20035;-72
2021/07/28 04:40:51;;;;;;;10.98;9.00;;;20.80;99.90;;;;;;2047870;29;20057;-72
2021/07/28 04:41:52;;;;;;;10.27;9.20;;;20.80;99.90;;;;;;2048944;28;20023;-72
2021/07/28 04:42:52;;;;;;;10.85;9.02;;;20.80;99.90;;;;;;2047932;29;20031;-72
2021/07/28 04:43:53;;;;;;;9.60;8.60;;;20.80;99.90;;;;;;2048216;29;20102;-72
2021/07/28 04:44:53;;;;;;;11.60;8.60;;;21.00;99.90;;;;;;2048343;28;20122;-72
2021/07/28 04:46:01;;;;;;;10.20;8.80;;;21.10;99.90;;;;;;2047479;28;20027;-72
2021/07/28 04:47:02;;;;;;;10.27;8.52;;;21.50;99.90;;;;;;2047847;29;20030;-72
2021/07/28 04:48:07;;;;;;;10.98;8.82;;;21.80;98.90;;;;;;2048366;28;20035;-72
2021/07/28 04:49:07;;;;;;;12.25;9.02;;;22.10;97.30;;;;;;2048205;28;20391;-72
2021/07/28 04:50:08;;;;;;;9.60;8.40;;;22.40;95.90;;;;;;2048096;28;20023;-72
2021/07/28 04:51:09;;;;;;;10.15;8.30;;;22.70;94.30;;;;;;2047795;28;20507;-72
2021/07/28 04:52:11;;;;;;;10.48;8.02;;;23.00;92.70;;;;;;2047776;29;20083;-72
2021/07/28 04:53:11;;;;;;;12.20;7.70;;;23.20;91.60;;;;;;2047375;29;20027;-72
2021/07/28 04:54:12;;;;;;;9.85;8.27;;;23.50;90.60;;;;;;2048273;29;20074;-72
2021/07/28 04:55:14;;;;;;;8.60;7.70;;;23.70;89.20;;;;;;2048496;29;20038;-72
2021/07/28 04:56:14;;;;;;;9.15;7.78;;;23.80;87.50;;;;;;2048298;28;20031;-72
2021/07/28 04:57:15;;;;;;;8.82;7.50;;;24.00;86.40;;;;;;2048296;28;20035;-72
2021/07/28 04:58:15;;;;;;;10.68;7.68;;;24.10;86.40;;;;;;2048248;29;20134;-72
2021/07/28 04:59:16;;;;;;;9.90;7.95;;;24.20;84.60;;;;;;2047646;29;20063;-72
2021/07/28 05:00:17;;;;;;;9.23;7.93;;;24.20;83.70;;;;;;2047672;29;20162;-72
2021/07/28 05:01:17;;;;;;;8.80;7.63;;;24.10;83.30;;;;;;2047674;29;20031;-72
2021/07/28 05:02:22;;;;;;;8.68;7.78;;;24.00;83.10;;;;;;2047630;29;20066;-72
2021/07/28 05:03:23;;;;;;;10.15;7.53;;;23.80;83.60;;;;;;2047866;28;20498;-72
2021/07/28 05:04:23;;;;;;;9.98;7.78;;;23.60;84.80;;;;;;2047443;29;20070;-72
2021/07/28 05:05:24;;;;;;;8.52;7.70;;;23.40;86.20;;;;;;2039757;29;20020;-72
2021/07/28 05:06:25;;;;;;;10.60;8.52;;;23.20;87.40;;;;;;2047540;29;20066;-72
2021/07/28 05:07:28;;;;;;;9.13;8.20;;;23.00;88.70;;;;;;2048265;28;20475;-72
2021/07/28 05:08:28;;;;;;;10.82;7.85;;;22.90;90.00;;;;;;2047567;28;20059;-72
2021/07/28 05:09:29;;;;;;;10.15;8.00;;;22.70;90.70;;;;;;2047526;29;20538;-72
2021/07/28 05:10:30;;;;;;;9.25;8.27;;;22.50;91.30;;;;;;2047877;29;20185;-72
2021/07/28 05:11:30;;;;;;;9.48;8.05;;;22.40;91.80;;;;;;2039828;29;20028;-72
2021/07/28 05:12:31;;;;;;;9.88;8.43;;;22.30;92.20;;;;;;2047701;29;20383;-72
2021/07/28 05:13:34;;;;;;;9.90;8.40;;;22.20;92.70;;;;;;2047175;29;20019;-72
2021/07/28 05:14:40;;;;;;;9.40;8.10;;;22.00;93.10;;;;;;2047677;29;20027;-72
2021/07/28 05:15:41;;;;;;;11.23;8.52;;;22.00;93.50;;;;;;2048363;28;20027;-72
2021/07/28 05:16:42;;;;;;;9.90;8.40;;;21.90;94.10;;;;;;2048144;28;20555;-72
2021/07/28 05:17:43;;;;;;;9.60;8.30;;;21.90;94.10;;;;;;2048187;29;20387;-72
2021/07/28 05:18:46;;;;;;;8.95;7.95;;;21.80;94.30;;;;;;2048146;29;20063;-72
2021/07/28 05:19:47;;;;;;;10.90;7.88;;;21.80;94.60;;;;;;2048248;28;20066;-72
2021/07/28 05:20:47;;;;;;;12.65;9.32;;;21.70;94.80;;;;;;2048302;28;20027;-72